Time;durP1;ratioP1;P1;durP2;ratioP2;P2;SDS_P1;SDS_P2;PMS_P1;PMS_P2;Temp;Humidity;BMP_temperature;BMP_pressure;BME280_temperature;BME280_humidity;BME280_pressure;Samples;Min_cycle;Max_cycle;Signal;HPM_P1;HPM_P2
2022/08/06 00:01:55;;;;;;;3.67;0.83;;;14.40;1.00;;;;;;5110741;28;20469;-86
2022/08/06 00:04:23;;;;;;;2.57;0.70;;;14.40;1.00;;;;;;5093003;28;20211;-85
2022/08/06 00:06:50;;;;;;;0.60;0.60;;;14.40;1.00;;;;;;5093734;28;20212;-86
2022/08/06 00:09:17;;;;;;;1.57;0.70;;;14.30;5.00;;;;;;5093654;28;20475;-84
2022/08/06 00:11:44;;;;;;;0.83;0.60;;;14.30;13.30;;;;;;5108573;28;20290;-84
2022/08/06 00:14:11;;;;;;;2.03;0.90;;;14.30;16.00;;;;;;5110096;28;20651;-86
2022/08/06 00:16:38;;;;;;;1.27;0.70;;;14.30;22.50;;;;;;5118935;22;20235;-85
2022/08/06 00:19:06;;;;;;;1.87;0.67;;;14.30;27.60;;;;;;5134491;28;20246;-85
2022/08/06 00:21:34;;;;;;;1.53;0.87;;;14.30;29.60;;;;;;5134024;28;20210;-85
2022/08/06 00:24:00;;;;;;;0.53;0.40;;;14.30;34.20;;;;;;5134608;28;20199;-85
2022/08/06 00:26:28;;;;;;;0.97;0.50;;;14.20;37.20;;;;;;5133393;28;20618;-85
2022/08/06 00:28:55;;;;;;;1.47;0.70;;;14.20;40.10;;;;;;5134375;28;20215;-85
2022/08/06 00:31:22;;;;;;;2.40;0.80;;;14.20;46.70;;;;;;5134303;28;20194;-87
2022/08/06 00:33:49;;;;;;;2.20;0.80;;;14.20;50.40;;;;;;5133764;28;20293;-86
2022/08/06 00:36:18;;;;;;;1.00;0.70;;;14.20;54.50;;;;;;5134335;27;20191;-84
2022/08/06 00:38:45;;;;;;;0.93;0.60;;;14.10;62.50;;;;;;5134440;28;20205;-84
2022/08/06 00:41:14;;;;;;;1.97;0.70;;;14.10;71.30;;;;;;5122545;28;20205;-86
2022/08/06 00:43:42;;;;;;;2.20;0.80;;;14.10;77.20;;;;;;5093575;28;20241;-85
2022/08/06 00:46:09;;;;;;;2.30;0.80;;;14.10;82.10;;;;;;5092988;28;20304;-85
2022/08/06 00:48:36;;;;;;;2.60;0.60;;;14.10;90.20;;;;;;5095462;28;20204;-85
2022/08/06 00:51:03;;;;;;;1.93;0.80;;;14.10;93.30;;;;;;5113796;28;20192;-84
2022/08/06 00:53:32;;;;;;;2.10;0.70;;;14.10;94.60;;;;;;5113378;28;20215;-86
2022/08/06 00:56:00;;;;;;;2.43;0.70;;;14.10;96.80;;;;;;5102151;28;20577;-86
2022/08/06 00:58:28;;;;;;;0.50;0.50;;;14.10;98.40;;;;;;5094278;28;20233;-84
2022/08/06 01:00:54;;;;;;;1.57;0.60;;;14.10;99.90;;;;;;5096968;28;20612;-85
2022/08/06 01:03:21;;;;;;;0.80;0.80;;;14.00;99.90;;;;;;5097005;28;20199;-87
2022/08/06 01:05:48;;;;;;;2.23;0.90;;;14.00;99.90;;;;;;5114840;28;20269;-86
2022/08/06 01:08:15;;;;;;;1.63;0.73;;;14.00;99.90;;;;;;5116508;28;20195;-86
2022/08/06 01:10:44;;;;;;;1.30;0.87;;;14.00;99.90;;;;;;5109532;27;20201;-86
2022/08/06 01:13:11;;;;;;;1.27;0.63;;;14.00;99.90;;;;;;5099514;27;20296;-86
2022/08/06 01:15:39;;;;;;;1.83;0.70;;;13.90;99.90;;;;;;5098332;27;20201;-86
2022/08/06 01:18:10;;;;;;;0.87;0.60;;;13.90;99.90;;;;;;5100397;28;20199;-88
2022/08/06 01:20:48;;;;;;;1.03;0.80;;;13.90;99.90;;;;;;5105306;27;20287;-88
2022/08/06 01:23:34;;;;;;;1.63;0.60;;;13.90;99.90;;;;;;5114560;27;20204;-87
2022/08/06 01:26:26;;;;;;;2.57;0.70;;;13.90;99.90;;;;;;5120174;27;20216;-88
2022/08/06 01:28:59;;;;;;;1.43;0.70;;;13.90;99.90;;;;;;5099551;27;20207;-86
2022/08/06 01:31:33;;;;;;;1.60;0.77;;;13.80;99.90;;;;;;5101932;28;20196;-85
2022/08/06 01:34:08;;;;;;;1.77;0.70;;;13.80;99.90;;;;;;5117103;28;20196;-88
2022/08/06 01:36:41;;;;;;;2.23;0.80;;;13.80;99.90;;;;;;5117063;28;20215;-88
2022/08/06 01:39:11;;;;;;;2.00;0.80;;;13.80;99.90;;;;;;5150457;22;20537;-87
2022/08/06 01:41:44;;;;;;;1.00;0.60;;;13.80;99.90;;;;;;5138237;27;20305;-88
2022/08/06 01:44:16;;;;;;;0.80;0.60;;;13.80;99.90;;;;;;5155459;27;20213;-88
2022/08/06 01:46:47;;;;;;;1.67;0.90;;;13.70;99.90;;;;;;5140664;27;20253;-87
2022/08/06 01:49:20;;;;;;;1.00;0.50;;;13.70;99.90;;;;;;5148211;27;20667;-88
2022/08/06 01:51:48;;;;;;;1.23;0.60;;;13.70;99.90;;;;;;5154549;27;20212;-88
2022/08/06 01:54:17;;;;;;;1.00;0.53;;;13.70;99.90;;;;;;5157683;27;20199;-87
2022/08/06 01:56:49;;;;;;;2.27;0.80;;;13.70;99.90;;;;;;5158227;27;20547;-87
2022/08/06 01:59:19;;;;;;;1.33;0.60;;;13.70;99.90;;;;;;5140673;27;20238;-86
2022/08/06 02:01:50;;;;;;;0.83;0.50;;;13.70;99.90;;;;;;5137166;27;20287;-87
2022/08/06 02:04:19;;;;;;;1.30;0.70;;;13.60;99.90;;;;;;5145238;27;20294;-87
2022/08/06 02:06:47;;;;;;;0.80;0.60;;;13.60;99.90;;;;;;5157685;27;20268;-87
2022/08/06 02:09:18;;;;;;;0.80;0.50;;;13.60;99.90;;;;;;5156920;27;20841;-84
2022/08/06 02:11:54;;;;;;;1.20;0.63;;;13.60;99.90;;;;;;5149256;27;20207;-87
2022/08/06 02:14:25;;;;;;;1.00;0.50;;;13.60;99.90;;;;;;5137198;27;20543;-87
2022/08/06 02:16:55;;;;;;;1.10;0.67;;;13.50;99.90;;;;;;5136676;27;20667;-87
2022/08/06 02:19:25;;;;;;;0.97;0.87;;;13.50;99.90;;;;;;5136629;27;20195;-88
2022/08/06 02:21:53;;;;;;;0.80;0.67;;;13.50;99.90;;;;;;5147988;27;20206;-86
2022/08/06 02:24:24;;;;;;;2.33;0.80;;;13.40;99.90;;;;;;5157762;27;20513;-87
2022/08/06 02:26:52;;;;;;;1.23;0.70;;;13.40;99.90;;;;;;5154976;27;20252;-88
2022/08/06 02:29:22;;;;;;;1.30;0.90;;;13.40;99.90;;;;;;5136181;27;20297;-84
2022/08/06 02:31:49;;;;;;;1.47;0.70;;;13.30;99.90;;;;;;5148273;27;20198;-85
2022/08/06 02:34:16;;;;;;;1.30;0.83;;;13.30;99.90;;;;;;5156945;27;20217;-85
2022/08/06 02:36:47;;;;;;;2.17;0.80;;;13.30;99.90;;;;;;5157292;27;20222;-85
2022/08/06 02:39:20;;;;;;;0.77;0.67;;;13.20;99.90;;;;;;5145958;27;20253;-85
2022/08/06 02:41:56;;;;;;;2.80;0.90;;;13.20;99.90;;;;;;5136050;27;20203;-86
2022/08/06 02:44:36;;;;;;;1.37;0.70;;;13.20;99.90;;;;;;5136229;27;20562;-85
2022/08/06 02:47:10;;;;;;;1.67;0.70;;;13.20;99.90;;;;;;5124607;27;20227;-88
2022/08/06 02:49:41;;;;;;;1.00;0.60;;;13.20;99.90;;;;;;5115970;28;20525;-86
2022/08/06 02:52:15;;;;;;;2.70;0.90;;;13.10;99.90;;;;;;5115667;28;20271;-86
2022/08/06 02:54:47;;;;;;;2.03;0.80;;;13.10;99.90;;;;;;5115917;28;20262;-87
2022/08/06 02:57:21;;;;;;;1.53;0.83;;;13.10;99.90;;;;;;5145646;27;20201;-85
2022/08/06 02:59:54;;;;;;;2.20;0.67;;;13.00;99.90;;;;;;5156923;27;20186;-85
2022/08/06 03:02:24;;;;;;;1.93;0.73;;;13.00;99.90;;;;;;5150815;27;20625;-88
2022/08/06 03:04:53;;;;;;;1.77;0.60;;;13.00;99.90;;;;;;5134862;27;20621;-88
2022/08/06 03:07:22;;;;;;;2.93;0.80;;;12.90;99.90;;;;;;5133977;27;20219;-85
2022/08/06 03:09:51;;;;;;;1.60;0.63;;;12.90;99.90;;;;;;5135537;27;20256;-85
2022/08/06 03:12:20;;;;;;;0.97;0.63;;;13.00;99.90;;;;;;5119288;27;20214;-84
2022/08/06 03:14:50;;;;;;;1.10;0.83;;;12.90;99.90;;;;;;5114254;28;20198;-84
2022/08/06 03:17:19;;;;;;;2.00;0.70;;;12.90;99.90;;;;;;5114473;28;20905;-86
2022/08/06 03:19:46;;;;;;;1.37;0.60;;;12.90;99.90;;;;;;5119359;27;20282;-84
2022/08/06 03:22:15;;;;;;;2.00;0.57;;;12.90;99.90;;;;;;5134451;27;20210;-86
2022/08/06 03:24:44;;;;;;;0.50;0.50;;;12.90;99.90;;;;;;5135081;27;20199;-86
2022/08/06 03:27:11;;;;;;;1.77;0.90;;;12.90;99.90;;;;;;5134662;27;20246;-87
2022/08/06 03:29:40;;;;;;;1.87;0.73;;;12.90;99.90;;;;;;5135107;27;20191;-84
2022/08/06 03:32:09;;;;;;;1.33;0.60;;;12.90;99.90;;;;;;5134184;27;20203;-86
2022/08/06 03:34:37;;;;;;;1.37;0.80;;;12.90;99.90;;;;;;5134201;27;20218;-85
2022/08/06 03:37:07;;;;;;;1.60;0.70;;;12.90;99.90;;;;;;5132716;27;20249;-84
2022/08/06 03:39:37;;;;;;;0.50;0.40;;;12.90;99.90;;;;;;5133429;27;20331;-85
2022/08/06 03:42:05;;;;;;;2.80;0.60;;;12.90;99.90;;;;;;5132922;27;20294;-86
2022/08/06 03:44:32;;;;;;;1.87;0.77;;;12.90;99.90;;;;;;5133706;27;20195;-84
2022/08/06 03:47:02;;;;;;;1.33;0.70;;;12.90;99.90;;;;;;5134663;27;20225;-85
2022/08/06 03:49:36;;;;;;;0.90;0.70;;;12.90;99.90;;;;;;5133638;27;20191;-85
2022/08/06 03:52:05;;;;;;;1.00;0.90;;;12.90;99.90;;;;;;5114998;27;20200;-85
2022/08/06 03:54:35;;;;;;;2.77;0.70;;;12.90;99.90;;;;;;5112667;28;20203;-85
2022/08/06 03:57:06;;;;;;;2.27;0.80;;;12.90;99.90;;;;;;5112263;28;20188;-85
2022/08/06 03:59:35;;;;;;;1.83;0.90;;;12.90;99.90;;;;;;5113869;27;20262;-85
2022/08/06 04:02:04;;;;;;;2.60;0.53;;;12.80;99.90;;;;;;5130524;27;20230;-84
2022/08/06 04:04:34;;;;;;;2.40;0.90;;;12.80;99.90;;;;;;5134645;28;20607;-83
2022/08/06 04:07:02;;;;;;;0.90;0.60;;;12.80;99.90;;;;;;5134309;28;20294;-84
2022/08/06 04:09:32;;;;;;;1.63;0.70;;;12.80;99.90;;;;;;5118907;27;20371;-84
2022/08/06 04:12:00;;;;;;;1.17;0.60;;;12.80;99.90;;;;;;5113926;27;20222;-84
2022/08/06 04:14:27;;;;;;;0.63;0.50;;;12.80;99.90;;;;;;5113804;28;20660;-85
2022/08/06 04:16:55;;;;;;;0.70;0.60;;;12.80;99.90;;;;;;5123177;27;20206;-83
2022/08/06 04:19:23;;;;;;;1.37;0.70;;;12.80;99.90;;;;;;5134535;28;20611;-84
2022/08/06 04:21:52;;;;;;;1.73;1.00;;;12.80;99.90;;;;;;5134275;28;20203;-85
2022/08/06 04:24:19;;;;;;;1.63;0.90;;;12.80;99.90;;;;;;5133820;28;20278;-85
2022/08/06 04:26:50;;;;;;;1.73;0.97;;;12.80;99.90;;;;;;5148176;27;20307;-85
2022/08/06 04:29:19;;;;;;;1.50;1.03;;;12.80;99.90;;;;;;5154920;27;20194;-84
2022/08/06 04:31:49;;;;;;;1.23;0.90;;;12.80;99.90;;;;;;5154687;27;20198;-85
2022/08/06 04:34:23;;;;;;;1.40;0.87;;;12.80;99.90;;;;;;5157434;27;20190;-86
2022/08/06 04:36:53;;;;;;;1.40;0.97;;;12.90;99.90;;;;;;5122389;27;20223;-84
2022/08/06 04:39:22;;;;;;;3.77;1.10;;;13.00;99.90;;;;;;5116540;28;20227;-84
2022/08/06 04:41:50;;;;;;;1.43;0.90;;;13.00;99.90;;;;;;5117228;28;20204;-84
2022/08/06 04:44:17;;;;;;;1.83;0.70;;;13.00;99.90;;;;;;5116179;27;20614;-84
2022/08/06 04:46:48;;;;;;;1.53;0.80;;;13.00;99.90;;;;;;5116987;28;20315;-85
2022/08/06 04:49:15;;;;;;;1.00;0.80;;;13.00;99.90;;;;;;5116786;28;20196;-86
2022/08/06 04:51:45;;;;;;;1.63;0.90;;;13.10;99.90;;;;;;5126601;27;20199;-84
2022/08/06 04:54:14;;;;;;;1.37;0.80;;;13.10;99.90;;;;;;5137238;27;20194;-85
2022/08/06 04:56:42;;;;;;;1.67;0.97;;;13.10;99.90;;;;;;5137313;27;20502;-82
2022/08/06 04:59:09;;;;;;;2.37;0.83;;;13.10;99.90;;;;;;5137865;27;20215;-83
2022/08/06 05:01:37;;;;;;;2.30;1.00;;;13.10;99.90;;;;;;5137361;27;20214;-84
2022/08/06 05:04:05;;;;;;;1.10;0.80;;;13.10;99.90;;;;;;5132187;27;20298;-84
2022/08/06 05:06:41;;;;;;;1.20;0.80;;;13.10;99.90;;;;;;5115866;28;20200;-85
2022/08/06 05:09:12;;;;;;;0.90;0.60;;;13.20;99.90;;;;;;5116427;28;20192;-83
2022/08/06 05:11:44;;;;;;;1.37;1.00;;;13.20;99.90;;;;;;5116287;28;20184;-84
2022/08/06 05:14:16;;;;;;;1.70;1.00;;;13.20;99.90;;;;;;5114778;27;20487;-85
2022/08/06 05:16:47;;;;;;;2.67;1.20;;;13.20;99.90;;;;;;5116357;28;20199;-85
2022/08/06 05:19:18;;;;;;;1.67;0.80;;;13.20;99.90;;;;;;5115376;28;20208;-85
2022/08/06 05:21:48;;;;;;;2.00;1.10;;;13.30;99.90;;;;;;5129774;27;20201;-84
2022/08/06 05:24:15;;;;;;;3.60;1.20;;;13.30;99.90;;;;;;5137006;27;20245;-85
2022/08/06 05:26:46;;;;;;;2.30;1.03;;;13.30;99.90;;;;;;5137670;27;20183;-86
2022/08/06 05:29:13;;;;;;;2.57;1.03;;;13.30;99.90;;;;;;5138195;27;20199;-86
2022/08/06 05:31:40;;;;;;;2.20;0.90;;;13.40;99.90;;;;;;5137630;27;20245;-84
2022/08/06 05:34:10;;;;;;;4.50;1.17;;;13.40;99.90;;;;;;5137298;27;20264;-86
2022/08/06 05:36:38;;;;;;;1.20;1.00;;;13.40;99.90;;;;;;5137370;27;20284;-86
2022/08/06 05:39:05;;;;;;;2.00;1.00;;;13.50;99.90;;;;;;5135953;27;20235;-86
2022/08/06 05:41:34;;;;;;;1.47;0.97;;;13.50;99.90;;;;;;5136736;27;20201;-87
2022/08/06 05:44:03;;;;;;;1.63;0.90;;;13.60;99.90;;;;;;5137198;27;20274;-87
2022/08/06 05:46:34;;;;;;;4.53;1.20;;;13.60;99.90;;;;;;5136910;27;20207;-87
2022/08/06 05:49:07;;;;;;;2.23;1.10;;;13.70;99.90;;;;;;5133255;27;20220;-87
2022/08/06 05:51:39;;;;;;;3.70;1.00;;;13.80;99.90;;;;;;5116434;28;20207;-85
2022/08/06 05:54:12;;;;;;;1.43;0.90;;;13.90;99.90;;;;;;5115961;28;20479;-89
2022/08/06 05:56:45;;;;;;;4.27;1.00;;;14.00;99.90;;;;;;5120355;27;20202;-87
2022/08/06 05:59:19;;;;;;;2.20;0.97;;;14.10;99.90;;;;;;5137319;27;20206;-86
2022/08/06 06:01:47;;;;;;;2.20;0.87;;;14.40;99.90;;;;;;5136626;27;20210;-87
2022/08/06 06:04:15;;;;;;;1.77;0.90;;;14.60;99.90;;;;;;5137324;27;20225;-86
2022/08/06 06:06:44;;;;;;;2.37;1.00;;;14.90;99.90;;;;;;5128061;27;20196;-85
2022/08/06 06:09:13;;;;;;;1.17;0.80;;;15.30;99.90;;;;;;5123876;27;20310;-83
2022/08/06 06:11:41;;;;;;;1.93;0.70;;;15.70;99.90;;;;;;5126111;27;20607;-87
2022/08/06 06:14:23;;;;;;;1.97;0.73;;;16.00;99.90;;;;;;5135165;27;20226;-90
2022/08/06 06:17:05;;;;;;;1.23;0.65;;;16.40;99.90;;;;;;5115966;28;20192;-86
2022/08/06 06:19:36;;;;;;;1.20;0.90;;;16.80;99.90;;;;;;5121925;27;20490;-86
2022/08/06 06:22:15;;;;;;;2.42;0.80;;;17.20;92.30;;;;;;5124952;27;20214;-85
2022/08/06 06:24:47;;;;;;;1.65;0.77;;;17.50;1.00;;;;;;5115072;28;20200;-85
2022/08/06 06:27:20;;;;;;;1.15;0.90;;;17.80;1.00;;;;;;5115033;27;20679;-85
2022/08/06 06:29:56;;;;;;;2.17;0.93;;;18.10;1.00;;;;;;5156211;27;20225;-84
2022/08/06 06:32:38;;;;;;;1.00;0.50;;;18.40;1.00;;;;;;5156018;27;20543;-87
2022/08/06 06:35:21;;;;;;;2.58;0.70;;;18.70;99.90;;;;;;5130331;27;20261;-81
2022/08/06 06:38:00;;;;;;;2.45;1.05;;;18.90;1.00;;;;;;5115288;28;20308;-86
2022/08/06 06:40:43;;;;;;;1.40;0.63;;;19.10;99.90;;;;;;5115281;28;20199;-87
2022/08/06 06:43:16;;;;;;;2.17;1.08;;;19.30;1.00;;;;;;5136833;27;20206;-88
2022/08/06 06:45:52;;;;;;;1.70;0.50;;;19.50;99.90;;;;;;5156445;27;20277;-88
2022/08/06 06:48:22;;;;;;;1.77;0.85;;;19.70;1.00;;;;;;5139082;27;20350;-86
2022/08/06 06:50:55;;;;;;;1.05;0.70;;;19.90;99.90;;;;;;5135692;27;20375;-86
2022/08/06 06:53:23;;;;;;;1.35;0.70;;;20.10;1.00;;;;;;5136057;27;20191;-89
2022/08/06 06:55:56;;;;;;;1.63;0.75;;;20.40;99.90;;;;;;5122556;27;20196;-86
2022/08/06 06:58:28;;;;;;;3.00;0.80;;;20.70;38.90;;;;;;5132541;27;20729;-85
2022/08/06 07:00:57;;;;;;;2.03;0.98;;;20.70;99.90;;;;;;5135549;27;20199;-89
2022/08/06 07:03:24;;;;;;;2.75;0.70;;;20.70;1.00;;;;;;5123421;27;20208;-85
2022/08/06 07:05:53;;;;;;;1.08;0.50;;;20.70;1.00;;;;;;5114774;28;20199;-85
2022/08/06 07:08:24;;;;;;;2.10;0.70;;;21.10;1.00;;;;;;5135196;27;20229;-85
2022/08/06 07:10:53;;;;;;;1.75;0.65;;;21.40;99.90;;;;;;5134565;27;20194;-87
2022/08/06 07:13:21;;;;;;;2.42;0.70;;;21.60;99.90;;;;;;5117940;27;20396;-84
2022/08/06 07:15:49;;;;;;;2.17;0.65;;;21.80;1.00;;;;;;5116447;27;20423;-90
2022/08/06 07:18:19;;;;;;;1.35;0.65;;;22.20;1.00;;;;;;5123893;27;20663;-91
2022/08/06 07:20:47;;;;;;;1.20;0.60;;;22.20;1.00;;;;;;5139574;27;20242;-88
2022/08/06 07:23:18;;;;;;;1.42;0.82;;;22.20;1.00;;;;;;5136716;27;20227;-85
2022/08/06 07:25:48;;;;;;;1.17;0.45;;;22.20;1.00;;;;;;5136417;27;20195;-89
2022/08/06 07:28:16;;;;;;;1.45;0.70;;;22.00;1.00;;;;;;5145749;27;20217;-95
2022/08/06 07:30:44;;;;;;;0.77;0.40;;;22.00;1.00;;;;;;5156531;27;20747;-93
2022/08/06 07:33:11;;;;;;;3.35;0.88;;;22.30;1.00;;;;;;5144883;27;20282;-90
2022/08/06 07:35:42;;;;;;;1.88;0.63;;;22.50;1.00;;;;;;5135651;27;20195;-93
2022/08/06 07:38:12;;;;;;;1.58;0.77;;;22.80;1.00;;;;;;5136060;27;20222;-90
2022/08/06 07:40:43;;;;;;;0.80;0.50;;;23.00;1.00;;;;;;5135669;27;20214;-90
2022/08/06 07:43:13;;;;;;;1.50;0.60;;;23.10;99.90;;;;;;5130662;27;20227;-90
2022/08/06 07:45:41;;;;;;;1.92;0.50;;;23.50;99.90;;;;;;5137025;27;20590;-89
2022/08/06 07:48:12;;;;;;;2.97;0.50;;;23.80;99.90;;;;;;5147136;27;20215;-90
2022/08/06 07:50:42;;;;;;;1.15;0.57;;;24.10;99.90;;;;;;5135415;27;20252;-89
2022/08/06 07:53:11;;;;;;;1.15;0.63;;;24.30;99.90;;;;;;5131711;27;20207;-90
2022/08/06 07:55:39;;;;;;;1.38;0.52;;;24.40;99.90;;;;;;5147141;27;20209;-91
2022/08/06 07:58:07;;;;;;;0.80;0.50;;;24.60;99.90;;;;;;5135095;27;20199;-95
2022/08/06 08:00:36;;;;;;;2.10;0.73;;;24.60;99.90;;;;;;5133554;27;20653;-86
2022/08/06 08:08:38;;;;;;;1.23;0.50;;;24.30;99.90;;;;;;5116658;28;20298;-86
2022/08/06 08:11:06;;;;;;;0.90;0.55;;;24.50;99.90;;;;;;5117331;27;20208;-84
2022/08/06 08:13:34;;;;;;;1.67;0.50;;;24.70;99.90;;;;;;5117093;28;20699;-86
2022/08/06 08:16:02;;;;;;;1.38;0.68;;;24.80;99.90;;;;;;5117268;28;20210;-84
2022/08/06 08:18:30;;;;;;;1.55;0.50;;;25.00;99.90;;;;;;5117500;27;20196;-84
2022/08/06 08:20:59;;;;;;;0.82;0.60;;;25.10;99.90;;;;;;5117738;28;20200;-85
2022/08/06 08:23:30;;;;;;;3.53;0.80;;;25.20;99.90;;;;;;5116916;28;20199;-86
2022/08/06 08:25:59;;;;;;;0.82;0.50;;;25.30;99.90;;;;;;5117503;27;20207;-83
2022/08/06 08:28:26;;;;;;;1.52;0.47;;;25.50;99.90;;;;;;5117293;28;20670;-82
2022/08/06 08:30:53;;;;;;;1.42;0.60;;;25.60;99.90;;;;;;5116748;27;20202;-86
2022/08/06 08:33:20;;;;;;;0.68;0.40;;;25.70;99.90;;;;;;5117412;28;20196;-87
2022/08/06 08:35:48;;;;;;;1.48;0.52;;;25.70;99.90;;;;;;5117163;28;20188;-85
2022/08/06 08:38:16;;;;;;;1.17;0.50;;;25.70;99.90;;;;;;5116508;28;20227;-83
2022/08/06 08:40:44;;;;;;;2.50;0.70;;;25.80;99.90;;;;;;5117525;27;20237;-82
2022/08/06 08:43:15;;;;;;;0.55;0.50;;;25.80;99.90;;;;;;5116739;28;20192;-83
2022/08/06 08:45:46;;;;;;;1.10;0.70;;;25.80;99.90;;;;;;5126042;27;20187;-84
2022/08/06 08:48:14;;;;;;;2.22;0.43;;;25.70;99.90;;;;;;5137907;27;20307;-87
2022/08/06 08:50:43;;;;;;;1.00;0.57;;;25.80;99.90;;;;;;5124696;27;20208;-89
2022/08/06 08:53:15;;;;;;;1.60;0.70;;;26.00;99.90;;;;;;5137590;27;20207;-87
2022/08/06 08:55:44;;;;;;;2.25;0.63;;;26.10;99.90;;;;;;5138747;27;20221;-89
2022/08/06 08:58:13;;;;;;;1.27;0.50;;;26.20;99.90;;;;;;5137938;27;20198;-86
2022/08/06 09:00:40;;;;;;;1.15;0.60;;;26.20;99.90;;;;;;5137909;27;20230;-90
2022/08/06 09:03:08;;;;;;;1.40;0.40;;;26.20;99.90;;;;;;5136727;27;20752;-83
2022/08/06 09:05:36;;;;;;;3.42;0.63;;;26.20;99.90;;;;;;5135974;27;20206;-82
2022/08/06 09:08:04;;;;;;;0.70;0.40;;;26.30;99.90;;;;;;5116276;28;20228;-84
2022/08/06 09:10:31;;;;;;;2.30;0.50;;;26.30;99.90;;;;;;5116208;27;20204;-83
2022/08/06 09:12:59;;;;;;;0.50;0.32;;;26.50;99.90;;;;;;5115990;27;20279;-84
2022/08/06 09:15:26;;;;;;;0.57;0.30;;;26.50;99.90;;;;;;5116884;28;20196;-91
2022/08/06 09:17:53;;;;;;;0.82;0.30;;;26.40;99.90;;;;;;5116794;27;20294;-89
2022/08/06 09:20:20;;;;;;;0.98;0.47;;;26.50;99.90;;;;;;5115252;28;20200;-91
2022/08/06 09:22:50;;;;;;;0.73;0.32;;;26.50;99.90;;;;;;5116376;28;20196;-85
2022/08/06 09:25:42;;;;;;;1.35;0.68;;;26.60;99.90;;;;;;5115489;27;20238;-85
2022/08/06 09:28:12;;;;;;;1.13;0.47;;;26.50;99.90;;;;;;5100843;28;20517;-83
2022/08/06 09:30:39;;;;;;;0.73;0.40;;;26.20;99.90;;;;;;5116181;28;20206;-87
2022/08/06 09:33:15;;;;;;;4.60;0.60;;;25.80;99.90;;;;;;5129700;27;20293;-87
2022/08/06 09:35:42;;;;;;;0.93;0.50;;;25.60;99.90;;;;;;5139185;27;20270;-93
2022/08/06 09:38:10;;;;;;;0.80;0.47;;;25.80;99.90;;;;;;5130191;27;20324;-86
2022/08/06 09:40:37;;;;;;;1.48;0.60;;;25.90;99.90;;;;;;5100006;28;20284;-85
2022/08/06 09:43:04;;;;;;;1.67;0.50;;;26.10;99.90;;;;;;5110006;27;20283;-81
2022/08/06 09:45:32;;;;;;;1.35;0.40;;;26.30;99.90;;;;;;5099060;28;20742;-83
2022/08/06 09:48:05;;;;;;;0.30;0.30;;;26.30;99.90;;;;;;5096912;28;20498;-93
2022/08/06 09:50:40;;;;;;;2.90;0.70;;;26.40;99.90;;;;;;5101342;28;20450;-83
2022/08/06 09:53:07;;;;;;;1.75;0.30;;;26.30;99.90;;;;;;5101418;28;20200;-84
2022/08/06 09:55:34;;;;;;;0.40;0.38;;;26.30;99.90;;;;;;5100441;28;20232;-84
2022/08/06 09:58:02;;;;;;;1.55;0.50;;;26.30;99.90;;;;;;5098676;28;20588;-81
2022/08/06 10:00:31;;;;;;;1.52;0.40;;;26.30;99.90;;;;;;5097935;28;20246;-82
2022/08/06 10:03:00;;;;;;;0.88;0.40;;;26.20;99.90;;;;;;5098591;28;20201;-87
2022/08/06 10:05:28;;;;;;;1.88;0.43;;;26.30;99.90;;;;;;5116165;28;20611;-85
2022/08/06 10:08:05;;;;;;;1.00;0.57;;;26.30;99.90;;;;;;5114624;27;20493;-82
2022/08/06 10:10:43;;;;;;;0.38;0.38;;;26.10;99.90;;;;;;5114682;28;20196;-83
2022/08/06 10:13:16;;;;;;;0.50;0.40;;;26.00;99.90;;;;;;5115570;28;20619;-83
2022/08/06 10:15:45;;;;;;;0.57;0.35;;;26.10;99.90;;;;;;5116023;27;20595;-85
2022/08/06 10:18:30;;;;;;;0.95;0.40;;;26.10;99.90;;;;;;5109763;27;20254;-85
2022/08/06 10:21:02;;;;;;;1.52;0.60;;;25.90;99.90;;;;;;5095771;28;20195;-84
2022/08/06 10:23:31;;;;;;;2.00;0.65;;;25.70;99.90;;;;;;5094329;28;20205;-86
2022/08/06 10:25:58;;;;;;;0.77;0.38;;;25.70;99.90;;;;;;5105066;28;20204;-85
2022/08/06 10:28:28;;;;;;;1.02;0.35;;;25.50;99.90;;;;;;5115802;28;20249;-87
2022/08/06 10:30:56;;;;;;;1.67;0.43;;;25.40;99.90;;;;;;5133398;27;20211;-87
2022/08/06 10:33:29;;;;;;;0.60;0.30;;;25.20;99.90;;;;;;5118118;27;20208;-86
2022/08/06 10:36:05;;;;;;;0.50;0.30;;;25.30;99.90;;;;;;5115721;28;20204;-85
2022/08/06 10:38:37;;;;;;;0.50;0.40;;;25.50;99.90;;;;;;5103437;27;20232;-85
2022/08/06 10:41:09;;;;;;;2.55;0.40;;;25.30;99.90;;;;;;5095210;28;20196;-87
2022/08/06 10:43:37;;;;;;;0.65;0.47;;;25.30;99.90;;;;;;5094907;28;20197;-86
2022/08/06 10:46:06;;;;;;;0.20;0.20;;;25.50;99.90;;;;;;5095468;28;20580;-85
2022/08/06 10:48:36;;;;;;;0.50;0.45;;;25.70;99.90;;;;;;5095267;28;20243;-86
2022/08/06 10:51:04;;;;;;;2.60;0.68;;;25.80;99.90;;;;;;5095427;28;20200;-87
2022/08/06 10:53:32;;;;;;;0.75;0.45;;;25.90;99.90;;;;;;5095101;28;20208;-87
2022/08/06 10:56:02;;;;;;;0.63;0.47;;;25.80;99.90;;;;;;5096615;28;20628;-91
2022/08/06 10:58:30;;;;;;;1.42;0.43;;;25.70;99.90;;;;;;5094180;28;20182;-86
2022/08/06 11:00:59;;;;;;;1.27;0.50;;;25.70;99.90;;;;;;5095032;28;21801;-88
2022/08/06 11:03:36;;;;;;;0.40;0.30;;;25.70;99.90;;;;;;5094556;28;20211;-83
2022/08/06 11:06:20;;;;;;;0.60;0.40;;;25.80;99.90;;;;;;5093445;27;20191;-85
2022/08/06 11:08:58;;;;;;;0.30;0.20;;;25.90;99.90;;;;;;5093351;28;20212;-87
2022/08/06 11:11:39;;;;;;;0.93;0.30;;;25.90;99.90;;;;;;5093939;28;20290;-86
2022/08/06 11:14:09;;;;;;;0.52;0.30;;;26.00;99.90;;;;;;5093621;28;20196;-84
2022/08/06 11:16:37;;;;;;;1.33;0.30;;;26.00;99.90;;;;;;5093560;28;20228;-81
2022/08/06 11:19:06;;;;;;;0.32;0.25;;;26.00;99.90;;;;;;5092319;28;20203;-85
2022/08/06 11:21:40;;;;;;;1.98;0.50;;;25.70;99.90;;;;;;5094053;28;20266;-84
2022/08/06 11:24:08;;;;;;;0.60;0.40;;;25.70;99.90;;;;;;5093390;28;20251;-85
2022/08/06 11:26:37;;;;;;;0.68;0.50;;;25.60;99.90;;;;;;5092692;28;20192;-89
2022/08/06 11:29:05;;;;;;;2.60;0.82;;;25.50;99.90;;;;;;5093610;28;20312;-88
2022/08/06 11:31:41;;;;;;;0.32;0.30;;;25.80;99.90;;;;;;5093778;28;20287;-83
2022/08/06 11:34:13;;;;;;;0.60;0.40;;;25.70;99.90;;;;;;5093009;28;20299;-88
2022/08/06 11:36:54;;;;;;;0.30;0.30;;;25.70;99.90;;;;;;5112043;28;20624;-83
2022/08/06 11:39:23;;;;;;;0.55;0.40;;;25.70;99.90;;;;;;5113035;28;20227;-84
2022/08/06 11:41:55;;;;;;;1.27;0.50;;;25.60;99.90;;;;;;5099315;28;20212;-82
2022/08/06 11:44:23;;;;;;;2.63;0.55;;;25.80;99.90;;;;;;5093879;28;20227;-85
2022/08/06 11:47:06;;;;;;;0.60;0.40;;;25.80;99.90;;;;;;5092839;28;20283;-82
2022/08/06 11:49:41;;;;;;;0.82;0.40;;;25.90;99.90;;;;;;5094123;28;20212;-84
2022/08/06 11:52:10;;;;;;;0.98;0.32;;;26.00;99.90;;;;;;5093048;28;20190;-85
2022/08/06 11:54:58;;;;;;;0.93;0.47;;;26.10;99.90;;;;;;5092696;28;20196;-83
2022/08/06 11:57:26;;;;;;;0.47;0.38;;;26.30;99.90;;;;;;5094337;28;20304;-85
2022/08/06 12:00:14;;;;;;;1.10;0.40;;;26.50;99.90;;;;;;5094142;28;20216;-87
2022/08/06 12:02:50;;;;;;;1.48;0.40;;;26.50;99.60;;;;;;5109379;28;20214;-86
2022/08/06 12:05:36;;;;;;;0.32;0.30;;;26.30;98.00;;;;;;5114020;28;20215;-85
2022/08/06 12:08:19;;;;;;;1.92;0.50;;;26.30;99.90;;;;;;5110472;28;20549;-83
2022/08/06 12:11:20;;;;;;;0.45;0.30;;;26.10;99.90;;;;;;5112975;28;20220;-82
2022/08/06 12:13:47;;;;;;;1.30;0.40;;;26.10;99.90;;;;;;5109600;28;20199;-90
2022/08/06 12:16:34;;;;;;;2.28;0.50;;;25.90;97.80;;;;;;5100308;28;20217;-85
2022/08/06 12:19:02;;;;;;;1.13;0.50;;;26.10;99.90;;;;;;5105579;28;20188;-89
2022/08/06 12:21:30;;;;;;;1.05;0.30;;;26.10;97.30;;;;;;5112994;28;20206;-85
2022/08/06 12:23:59;;;;;;;1.90;0.30;;;26.30;99.60;;;;;;5126642;28;20206;-86
2022/08/06 12:26:31;;;;;;;0.73;0.32;;;26.50;98.50;;;;;;5126022;28;20203;-86
2022/08/06 12:29:02;;;;;;;1.35;0.50;;;26.40;97.60;;;;;;5124313;28;20227;-88
2022/08/06 12:31:31;;;;;;;0.63;0.30;;;26.30;98.40;;;;;;5114173;28;20196;-91
2022/08/06 12:33:58;;;;;;;0.38;0.30;;;26.20;99.90;;;;;;5114317;28;20206;-88
2022/08/06 12:36:30;;;;;;;1.15;0.50;;;26.20;98.40;;;;;;5114856;28;20306;-89
2022/08/06 12:39:00;;;;;;;1.10;0.40;;;26.20;96.70;;;;;;5126720;28;20310;-91
2022/08/06 12:41:42;;;;;;;0.65;0.30;;;26.20;97.10;;;;;;5138178;28;20225;-88
2022/08/06 12:44:10;;;;;;;2.50;0.47;;;26.40;98.40;;;;;;5115681;28;20184;-88
2022/08/06 12:46:38;;;;;;;0.30;0.30;;;26.60;99.90;;;;;;5114918;28;20550;-85
2022/08/06 12:49:06;;;;;;;0.30;0.30;;;26.60;97.60;;;;;;5114314;28;20609;-88
2022/08/06 12:51:34;;;;;;;1.63;0.40;;;26.40;94.90;;;;;;5124327;27;20275;-93
2022/08/06 12:54:10;;;;;;;0.75;0.40;;;26.40;95.40;;;;;;5136737;27;20192;-92
2022/08/06 12:56:40;;;;;;;0.47;0.30;;;26.20;94.60;;;;;;5125337;27;20199;-91
2022/08/06 12:59:11;;;;;;;0.70;0.40;;;26.30;96.00;;;;;;5127129;27;20210;-88
2022/08/06 13:01:38;;;;;;;1.45;0.50;;;26.30;94.70;;;;;;5138903;27;20210;-88
2022/08/06 13:04:12;;;;;;;1.00;0.38;;;26.00;92.10;;;;;;5138914;27;20199;-91
2022/08/06 13:06:40;;;;;;;1.70;0.38;;;25.90;90.70;;;;;;5138718;27;20223;-91
2022/08/06 13:09:09;;;;;;;2.17;0.47;;;25.80;93.30;;;;;;5137222;27;20214;-91
2022/08/06 13:11:38;;;;;;;1.00;0.35;;;25.70;93.70;;;;;;5136347;27;20227;-90